createdAt,value
2019-04-20T00:01:38.803Z,16.63
2019-04-20T00:04:09.877Z,16.73
2019-04-20T00:06:47.818Z,16.73
2019-04-20T00:09:15.938Z,20.10
2019-04-20T00:11:55.238Z,17.87
2019-04-20T00:14:19.300Z,17.73
2019-04-20T00:16:44.418Z,15.87
2019-04-20T00:19:22.632Z,17.43
2019-04-20T00:21:57.470Z,15.13
2019-04-20T00:24:35.928Z,18.63
2019-04-20T00:27:26.034Z,20.57
2019-04-20T00:29:54.897Z,22.10
2019-04-20T00:32:20.898Z,22.07
2019-04-20T00:34:45.279Z,20.60
2019-04-20T00:37:13.150Z,17.23
2019-04-20T00:39:42.718Z,19.33
2019-04-20T00:42:15.863Z,19.93
2019-04-20T00:44:45.801Z,16.60
2019-04-20T00:47:29.506Z,21.90
2019-04-20T00:49:57.930Z,18.07
2019-04-20T00:52:32.868Z,20.80
2019-04-20T00:54:47.354Z,22.27
2019-04-20T00:57:24.455Z,22.77
2019-04-20T01:00:11.130Z,22.97
2019-04-20T01:02:37.145Z,22.10
2019-04-20T01:05:10.941Z,24.50
2019-04-20T01:07:52.098Z,19.27
2019-04-20T01:10:17.745Z,20.77
2019-04-20T01:12:47.488Z,29.17
2019-04-20T01:15:28.098Z,22.10
2019-04-20T01:17:48.947Z,18.50
2019-04-20T01:20:26.471Z,21.00
2019-04-20T01:23:01.927Z,23.47
2019-04-20T01:25:34.977Z,21.00
2019-04-20T01:28:13.267Z,21.97
2019-04-20T01:30:50.606Z,21.73
2019-04-20T01:33:25.179Z,24.80
2019-04-20T01:36:10.428Z,25.53
2019-04-20T01:38:39.907Z,21.27
2019-04-20T01:40:55.027Z,28.43
2019-04-20T01:43:24.747Z,24.63
2019-04-20T01:46:01.349Z,22.07
2019-04-20T01:48:30.091Z,23.83
2019-04-20T01:51:06.570Z,24.33
2019-04-20T01:53:51.375Z,29.53
2019-04-20T01:56:24.451Z,28.87
2019-04-20T01:59:26.670Z,24.63
2019-04-20T02:02:05.193Z,29.33
2019-04-20T02:04:45.975Z,27.20
2019-04-20T02:07:13.660Z,26.93
2019-04-20T02:09:49.532Z,23.20
2019-04-20T02:12:21.581Z,25.07
2019-04-20T02:14:52.438Z,25.90
2019-04-20T02:17:30.016Z,27.27
2019-04-20T02:20:10.480Z,28.87
2019-04-20T02:22:44.570Z,31.07
2019-04-20T02:24:55.148Z,27.07
2019-04-20T02:27:31.334Z,24.43
2019-04-20T02:30:21.704Z,28.63
2019-04-20T02:33:16.739Z,25.57
2019-04-20T02:35:56.202Z,29.40
2019-04-20T02:38:39.272Z,31.07
2019-04-20T02:41:03.297Z,28.57
2019-04-20T02:43:40.175Z,28.47
2019-04-20T02:45:59.394Z,30.90
2019-04-20T02:48:29.903Z,29.47
2019-04-20T02:53:46.944Z,27.73
2019-04-20T02:56:15.207Z,31.00
2019-04-20T02:58:45.484Z,29.23
2019-04-20T03:01:15.911Z,28.87
2019-04-20T03:03:32.824Z,25.73
2019-04-20T03:06:19.598Z,29.10
2019-04-20T03:09:06.406Z,27.00
2019-04-20T03:11:40.446Z,28.97
2019-04-20T03:14:07.247Z,32.10
2019-04-20T03:16:32.357Z,29.70
2019-04-20T03:18:58.702Z,30.23
2019-04-20T03:21:38.025Z,29.70
2019-04-20T03:24:13.207Z,30.73
2019-04-20T03:26:41.979Z,32.60
2019-04-20T03:29:36.082Z,30.00
2019-04-20T03:32:39.867Z,28.07
2019-04-20T03:37:15.620Z,33.50
2019-04-20T03:39:36.320Z,28.43
2019-04-20T03:41:56.653Z,28.40
2019-04-20T03:44:27.853Z,29.33
2019-04-20T03:47:01.215Z,29.33
2019-04-20T03:49:55.057Z,27.63
2019-04-20T03:52:31.318Z,26.27
2019-04-20T03:55:01.389Z,27.37
2019-04-20T03:57:54.261Z,25.83
2019-04-20T04:00:38.800Z,24.63
2019-04-20T04:03:48.797Z,26.03
2019-04-20T04:06:09.625Z,25.37
2019-04-20T04:08:36.429Z,31.57
2019-04-20T04:11:16.301Z,29.47
2019-04-20T04:13:31.471Z,30.50
2019-04-20T04:16:06.104Z,28.53
2019-04-20T04:18:39.456Z,26.80
2019-04-20T04:21:12.644Z,28.75
2019-04-20T04:23:57.521Z,29.47
2019-04-20T04:26:27.523Z,25.20
2019-04-20T04:28:53.575Z,23.93
2019-04-20T04:31:30.783Z,28.27
2019-04-20T04:34:03.616Z,32.23
2019-04-20T04:36:30.379Z,29.53
2019-04-20T04:39:08.884Z,26.70
2019-04-20T04:41:37.444Z,30.83
2019-04-20T04:44:04.774Z,26.73
2019-04-20T04:46:18.549Z,27.13
2019-04-20T04:48:51.138Z,32.77
2019-04-20T04:51:24.426Z,27.93
2019-04-20T04:53:59.799Z,25.40
2019-04-20T04:56:24.933Z,25.20
2019-04-20T04:58:54.101Z,26.27
2019-04-20T05:01:27.395Z,28.30
2019-04-20T05:06:39.755Z,26.07
2019-04-20T05:09:03.278Z,25.57
2019-04-20T05:11:30.058Z,23.73
2019-04-20T05:14:05.219Z,23.10
2019-04-20T05:16:53.984Z,26.20
2019-04-20T05:19:26.091Z,28.07
2019-04-20T05:22:03.934Z,30.70
2019-04-20T05:24:33.813Z,26.10
2019-04-20T05:27:32.046Z,24.10
2019-04-20T05:29:42.861Z,25.93
2019-04-20T05:32:17.993Z,27.17
2019-04-20T05:35:12.294Z,28.33
2019-04-20T05:37:43.492Z,24.70
2019-04-20T05:40:11.905Z,23.97
2019-04-20T05:42:54.173Z,26.20
2019-04-20T05:45:20.647Z,24.33
2019-04-20T05:47:55.151Z,26.67
2019-04-20T05:50:27.182Z,28.73
2019-04-20T05:53:02.737Z,27.37
2019-04-20T05:55:34.510Z,30.17
2019-04-20T05:58:03.612Z,24.90
2019-04-20T06:00:45.911Z,28.47
2019-04-20T06:03:06.107Z,25.37
2019-04-20T06:05:48.839Z,25.37
2019-04-20T06:08:14.891Z,23.57
2019-04-20T06:10:45.245Z,29.23
2019-04-20T06:13:29.744Z,24.63
2019-04-20T06:16:08.916Z,28.97
2019-04-20T06:18:40.169Z,23.50
2019-04-20T06:21:26.564Z,24.97
2019-04-20T06:24:10.674Z,22.60
2019-04-20T06:26:52.114Z,27.23
2019-04-20T06:29:07.290Z,27.93
2019-04-20T06:31:40.975Z,29.20
2019-04-20T06:36:53.457Z,24.30
2019-04-20T06:39:44.939Z,28.00
2019-04-20T06:44:39.714Z,26.93
2019-04-20T06:49:40.624Z,23.23
2019-04-20T06:52:34.287Z,24.00
2019-04-20T06:55:08.260Z,24.77
2019-04-20T06:57:48.593Z,28.27
2019-04-20T07:00:15.616Z,21.70
2019-04-20T07:02:51.153Z,20.63
2019-04-20T07:05:24.799Z,24.00
2019-04-20T07:08:07.028Z,24.00
2019-04-20T07:10:35.856Z,23.30
2019-04-20T07:12:55.636Z,21.20
2019-04-20T07:15:29.239Z,24.37
2019-04-20T07:18:09.189Z,24.87
2019-04-20T07:20:59.583Z,18.83
2019-04-20T07:23:40.678Z,20.47
2019-04-20T07:26:16.926Z,22.77
2019-04-20T07:28:55.885Z,22.53
2019-04-20T07:31:21.459Z,20.67
2019-04-20T07:33:48.231Z,20.43
2019-04-20T07:36:28.747Z,22.10
2019-04-20T07:38:59.722Z,18.50
2019-04-20T07:41:36.623Z,19.03
2019-04-20T07:44:03.534Z,18.93
2019-04-20T07:46:43.875Z,19.53
2019-04-20T07:49:01.865Z,18.03
2019-04-20T07:51:18.264Z,20.30
2019-04-20T07:54:21.267Z,19.77
2019-04-20T07:56:42.421Z,19.30
2019-04-20T07:58:57.076Z,21.47
2019-04-20T08:02:04.318Z,18.43
2019-04-20T08:04:28.841Z,19.97
2019-04-20T08:06:55.684Z,22.03
2019-04-20T08:09:32.846Z,17.80
2019-04-20T08:12:26.843Z,16.50
2019-04-20T08:14:57.591Z,18.90
2019-04-20T08:17:41.910Z,22.23
2019-04-20T08:20:02.750Z,21.87
2019-04-20T08:22:35.462Z,18.50
2019-04-20T08:25:04.587Z,15.90
2019-04-20T08:27:25.761Z,15.53
2019-04-20T08:30:20.637Z,18.40
2019-04-20T08:33:05.265Z,19.47
2019-04-20T08:35:39.551Z,18.97
2019-04-20T08:40:52.081Z,21.60
2019-04-20T08:43:34.974Z,21.10
2019-04-20T08:46:01.848Z,22.07
2019-04-20T08:48:29.806Z,20.37
2019-04-20T08:50:57.774Z,17.90
2019-04-20T08:53:33.542Z,22.53
2019-04-20T08:55:54.250Z,23.30
2019-04-20T08:58:11.299Z,18.83
2019-04-20T09:00:46.824Z,21.47
2019-04-20T09:03:19.857Z,17.00
2019-04-20T09:06:03.242Z,19.33
2019-04-20T09:08:32.649Z,18.43
2019-04-20T09:11:14.297Z,16.83
2019-04-20T09:13:36.325Z,15.23
2019-04-20T09:16:01.996Z,15.17
2019-04-20T09:18:51.455Z,18.90
2019-04-20T09:21:27.128Z,15.67
2019-04-20T09:24:10.551Z,15.50
2019-04-20T09:26:37.712Z,17.37
2019-04-20T09:29:05.417Z,15.97
2019-04-20T09:31:43.102Z,14.57
2019-04-20T09:34:46.577Z,17.33
2019-04-20T09:37:41.676Z,15.07
2019-04-20T09:40:25.518Z,29.37
2019-04-20T09:42:52.124Z,17.57
2019-04-20T09:45:37.279Z,30.03
2019-04-20T09:48:03.137Z,16.87
2019-04-20T09:50:47.578Z,12.80
2019-04-20T09:53:19.791Z,27.40
2019-04-20T09:55:53.395Z,29.50
2019-04-20T09:58:18.997Z,15.20
2019-04-20T10:01:00.762Z,17.20
2019-04-20T10:03:16.527Z,11.10
2019-04-20T10:05:49.536Z,12.03
2019-04-20T10:08:19.759Z,12.43
2019-04-20T10:10:50.688Z,11.03
2019-04-20T10:13:22.208Z,10.00
2019-04-20T10:15:53.898Z,13.07
2019-04-20T10:18:23.764Z,10.03
2019-04-20T10:20:53.852Z,10.57
2019-04-20T10:23:24.870Z,12.77
2019-04-20T10:25:54.351Z,13.43
2019-04-20T10:28:23.758Z,11.93
2019-04-20T10:30:53.121Z,14.40
2019-04-20T10:33:25.777Z,15.77
2019-04-20T10:35:54.985Z,14.07
2019-04-20T10:38:32.875Z,12.77
2019-04-20T10:41:09.504Z,14.37
2019-04-20T18:42:23.723Z,15.10
2019-04-20T18:45:00.917Z,15.90
2019-04-20T18:47:44.437Z,13.93
2019-04-20T18:50:03.688Z,12.23
2019-04-20T18:52:24.664Z,14.40
2019-04-20T18:54:55.643Z,13.27
2019-04-20T18:57:29.631Z,17.17
2019-04-20T18:59:59.128Z,16.77
2019-04-20T19:02:33.546Z,14.20
2019-04-20T19:05:03.409Z,15.63
2019-04-20T19:07:34.891Z,15.17
2019-04-20T19:10:11.182Z,16.80
2019-04-20T19:12:46.173Z,13.73
2019-04-20T19:15:51.185Z,15.03
2019-04-20T19:18:47.840Z,13.90
2019-04-20T19:21:03.470Z,15.43
2019-04-20T19:23:48.572Z,12.77
2019-04-20T19:26:13.797Z,14.67
2019-04-20T19:28:46.327Z,15.50
2019-04-20T19:31:26.907Z,11.93
2019-04-20T19:34:01.848Z,13.23
2019-04-20T19:36:25.626Z,14.70
2019-04-20T19:39:01.817Z,14.13
2019-04-20T19:41:29.834Z,14.27
2019-04-20T19:44:02.536Z,13.00
2019-04-20T19:49:01.327Z,16.73
2019-04-20T19:51:49.254Z,12.63
2019-04-20T19:54:26.914Z,15.93
2019-04-20T19:56:49.799Z,15.17
2019-04-20T19:59:18.597Z,13.77
2019-04-20T20:01:35.978Z,14.03
2019-04-20T20:04:09.278Z,13.13
2019-04-20T20:06:43.146Z,13.40
2019-04-20T20:09:12.250Z,11.83
2019-04-20T20:11:42.917Z,12.33
2019-04-20T20:14:13.299Z,17.00
2019-04-20T20:17:06.690Z,15.70
2019-04-20T20:19:29.439Z,14.60
2019-04-20T20:21:59.071Z,17.03
2019-04-20T20:24:19.614Z,15.17
2019-04-20T20:26:56.295Z,14.73
2019-04-20T20:29:33.222Z,14.60
2019-04-20T20:32:11.693Z,14.27
2019-04-20T20:34:34.546Z,11.97
2019-04-20T20:37:08.489Z,13.33
2019-04-20T20:39:36.297Z,15.70
2019-04-20T20:42:15.403Z,15.47
2019-04-20T20:44:41.086Z,16.87
2019-04-20T20:47:34.137Z,12.53
2019-04-20T20:50:03.575Z,21.13
2019-04-20T20:52:27.344Z,23.70
2019-04-20T20:54:52.279Z,21.93
2019-04-20T20:57:15.323Z,13.40
2019-04-20T20:59:52.820Z,16.93
2019-04-20T21:02:19.658Z,17.00
2019-04-20T21:04:44.049Z,19.03
2019-04-20T21:07:13.589Z,19.37
2019-04-20T21:09:42.718Z,18.03
2019-04-20T21:12:15.915Z,19.10
2019-04-20T21:14:46.855Z,15.33
2019-04-20T21:17:18.371Z,19.97
2019-04-20T21:20:03.462Z,16.17
2019-04-20T21:22:33.808Z,14.40
2019-04-20T21:24:53.082Z,14.87
2019-04-20T21:27:23.931Z,16.00
2019-04-20T21:29:57.857Z,18.57
2019-04-20T21:32:28.137Z,17.60
2019-04-20T21:35:01.692Z,14.13
2019-04-20T21:37:28.947Z,17.87
2019-04-20T21:40:00.545Z,15.63
2019-04-20T21:42:34.715Z,15.17
2019-04-20T21:45:07.035Z,15.13
2019-04-20T21:47:36.321Z,18.23
2019-04-20T21:50:21.394Z,19.00
2019-04-20T21:52:42.439Z,15.33
2019-04-20T21:55:09.862Z,12.87
2019-04-20T21:57:48.664Z,15.00
2019-04-20T22:00:21.707Z,18.07
2019-04-20T22:02:54.148Z,15.13
2019-04-20T22:05:15.672Z,24.00
2019-04-20T22:07:46.501Z,17.70
2019-04-20T22:10:19.908Z,18.83
2019-04-20T22:12:53.867Z,15.70
2019-04-20T22:15:27.122Z,17.03
2019-04-20T22:17:59.189Z,16.00
2019-04-20T22:20:33.127Z,25.67
2019-04-20T22:23:05.756Z,16.27
2019-04-20T22:25:47.785Z,18.47
2019-04-20T22:28:02.348Z,17.93
2019-04-20T22:30:33.493Z,15.47
2019-04-20T22:33:08.101Z,18.53
2019-04-20T22:35:47.886Z,20.03
2019-04-20T22:38:37.651Z,18.97
2019-04-20T22:41:27.743Z,17.27
2019-04-20T22:43:56.715Z,16.63
2019-04-20T22:46:34.115Z,17.47
2019-04-20T22:49:17.979Z,17.83
2019-04-20T22:51:46.211Z,16.77
2019-04-20T22:54:23.192Z,20.00
2019-04-20T22:56:47.094Z,17.33
2019-04-20T22:59:13.165Z,18.87
2019-04-20T23:01:46.482Z,18.23
2019-04-20T23:04:10.834Z,16.17
2019-04-20T23:06:45.832Z,20.87
2019-04-20T23:09:15.113Z,15.17
2019-04-20T23:11:45.697Z,16.63
2019-04-20T23:14:16.241Z,17.47
2019-04-20T23:16:50.627Z,20.90
2019-04-20T23:19:28.814Z,16.30
2019-04-20T23:21:55.735Z,24.80
2019-04-20T23:24:20.218Z,16.73
2019-04-20T23:26:50.814Z,18.80
2019-04-20T23:29:21.415Z,20.87
2019-04-20T23:31:57.439Z,19.40
2019-04-20T23:34:29.059Z,18.43
2019-04-20T23:36:56.757Z,18.90
2019-04-20T23:39:34.754Z,17.13
2019-04-20T23:42:05.627Z,19.37
2019-04-20T23:44:51.134Z,16.27
2019-04-20T23:47:34.213Z,18.90
2019-04-20T23:50:19.473Z,18.33
2019-04-20T23:53:00.012Z,20.00
2019-04-20T23:55:16.976Z,25.67
2019-04-20T23:57:51.525Z,20.10
